Manteno, Illinois
Current Conditions -  °F | °C
As of 12:55 PM on Sunday 23 Nov 2014 (Local Time) from KIKK Reporting Station
Moderate Rain Moderate Rain  
Wind Chill: 53°   Ceiling: 1700
Heat Index: 53°   Visibility: 10mi
Dew Point: 49°   Wind: 8mph
Humidity: 86%   Direction: 140°SE
Pressure: 29.58"   Gusts: NA
Location:  41.25°N, 87.83°W
Report Text: KIKK 231855Z AUTO 14007KT 10SM RA OVC017 12/09 A2958 RMK AO2 T01170094
Loading
Personal Weather Stations






























Interactive Weather Map New forecast layout! Learn more

10-Day Weather Forecast

Advertisements
Track Severe Weather on mobile